Time;durP1;ratioP1;P1;durP2;ratioP2;P2;SDS_P1;SDS_P2;PMS_P1;PMS_P2;Temp;Humidity;BMP_temperature;BMP_pressure;BME280_temperature;BME280_humidity;BME280_pressure;Samples;Min_cycle;Max_cycle;Signal;HPM_P1;HPM_P2
2022/03/19 00:01:15;;;;;;;12.40;7.80;;;6.60;70.80;;;;;;5031910;28;20449;-83
2022/03/19 00:03:42;;;;;;;10.20;6.27;;;6.60;71.00;;;;;;5035429;28;20459;-83
2022/03/19 00:06:09;;;;;;;15.20;7.50;;;6.70;71.10;;;;;;5038732;28;20562;-83
2022/03/19 00:08:37;;;;;;;13.23;6.47;;;6.70;70.50;;;;;;5038152;28;20490;-83
2022/03/19 00:11:05;;;;;;;19.37;8.00;;;6.80;70.70;;;;;;5038480;28;20979;-83
2022/03/19 00:13:33;;;;;;;16.50;7.27;;;6.80;70.10;;;;;;5038139;28;20459;-83
2022/03/19 00:16:00;;;;;;;15.07;7.30;;;7.00;69.90;;;;;;5038591;28;20544;-83
2022/03/19 00:18:27;;;;;;;13.00;7.57;;;6.80;69.70;;;;;;5038042;28;20508;-83
2022/03/19 00:20:54;;;;;;;12.73;7.40;;;6.80;70.50;;;;;;5037940;28;20447;-83
2022/03/19 00:23:21;;;;;;;13.63;8.50;;;6.70;70.10;;;;;;5038366;28;20456;-83
2022/03/19 00:25:48;;;;;;;12.37;6.60;;;6.70;70.80;;;;;;5038073;28;20451;-83
2022/03/19 00:28:18;;;;;;;12.10;6.40;;;6.80;70.80;;;;;;5037428;28;20471;-82
2022/03/19 00:30:46;;;;;;;15.73;7.50;;;6.70;70.50;;;;;;5038068;28;20992;-83
2022/03/19 00:33:13;;;;;;;14.60;7.20;;;6.70;71.10;;;;;;5038378;28;20458;-83
2022/03/19 00:35:40;;;;;;;16.23;7.43;;;6.60;71.00;;;;;;5038540;28;20848;-83
2022/03/19 00:38:07;;;;;;;15.00;8.07;;;6.40;72.10;;;;;;5061058;23;20476;-80
2022/03/19 00:40:35;;;;;;;14.80;7.63;;;6.40;73.60;;;;;;5042261;28;20456;-81
2022/03/19 00:43:01;;;;;;;13.07;7.23;;;6.30;73.20;;;;;;5042041;28;21009;-81
2022/03/19 00:45:30;;;;;;;11.30;7.93;;;6.30;74.80;;;;;;5042609;28;20444;-81
2022/03/19 00:47:57;;;;;;;15.30;9.63;;;6.30;74.30;;;;;;5042591;28;20478;-81
2022/03/19 00:50:23;;;;;;;13.23;7.83;;;6.40;72.70;;;;;;5041885;28;20455;-81
2022/03/19 00:52:50;;;;;;;14.53;6.90;;;6.50;72.30;;;;;;5042568;28;20952;-81
2022/03/19 00:55:17;;;;;;;19.33;9.70;;;6.50;72.70;;;;;;5042409;28;20843;-81
2022/03/19 00:57:45;;;;;;;11.13;7.63;;;6.80;71.50;;;;;;5042425;28;20463;-82
2022/03/19 01:00:14;;;;;;;13.87;10.40;;;6.70;71.60;;;;;;5041857;28;20459;-82
2022/03/19 01:02:43;;;;;;;12.23;7.87;;;6.80;71.80;;;;;;5041877;28;20451;-81
2022/03/19 01:05:11;;;;;;;17.63;7.63;;;6.80;71.40;;;;;;5041803;28;21022;-81
2022/03/19 01:07:42;;;;;;;11.43;7.73;;;6.80;71.00;;;;;;5042162;28;20456;-81
2022/03/19 01:10:10;;;;;;;14.27;8.27;;;6.50;71.40;;;;;;5041189;28;20455;-81
2022/03/19 01:12:37;;;;;;;12.13;8.07;;;6.50;72.00;;;;;;5030838;28;20467;-82
2022/03/19 01:15:04;;;;;;;14.23;7.67;;;6.40;74.00;;;;;;5039817;28;20552;-81
2022/03/19 01:17:31;;;;;;;17.20;9.23;;;6.30;74.80;;;;;;5039277;28;20456;-81
2022/03/19 01:20:01;;;;;;;14.97;8.97;;;6.10;75.30;;;;;;5038909;28;20476;-81
2022/03/19 01:22:28;;;;;;;21.17;9.63;;;6.10;76.20;;;;;;5038357;28;20452;-81
2022/03/19 01:24:56;;;;;;;14.63;8.50;;;5.90;77.20;;;;;;5038821;28;20456;-83
2022/03/19 01:27:23;;;;;;;15.30;9.43;;;5.90;79.20;;;;;;5039266;28;20824;-81
2022/03/19 01:29:49;;;;;;;14.63;7.90;;;5.80;78.80;;;;;;5038322;28;20851;-81
2022/03/19 01:32:16;;;;;;;15.13;9.30;;;5.40;80.00;;;;;;5038746;28;20483;-81
2022/03/19 01:34:43;;;;;;;16.77;10.23;;;5.10;81.50;;;;;;5038870;28;20444;-81
2022/03/19 01:37:11;;;;;;;15.03;11.40;;;4.90;84.70;;;;;;5039029;28;20448;-82
2022/03/19 01:39:38;;;;;;;19.43;11.47;;;4.60;87.90;;;;;;5038096;28;20483;-83
2022/03/19 01:42:05;;;;;;;19.47;14.50;;;4.20;90.10;;;;;;5038986;28;20454;-81
2022/03/19 01:44:32;;;;;;;18.80;17.10;;;4.10;92.20;;;;;;5038505;28;20452;-81
2022/03/19 01:47:01;;;;;;;27.57;25.57;;;3.80;94.30;;;;;;5038918;28;20451;-81
2022/03/19 01:49:29;;;;;;;34.03;31.57;;;3.70;96.10;;;;;;5037876;28;20943;-81
2022/03/19 01:51:56;;;;;;;31.77;29.50;;;3.50;97.10;;;;;;5038889;28;20480;-81
2022/03/19 01:54:27;;;;;;;41.67;38.97;;;3.40;98.40;;;;;;5038019;28;20455;-82
2022/03/19 01:56:55;;;;;;;46.20;43.17;;;3.30;99.50;;;;;;5038195;28;20972;-81
2022/03/19 01:59:24;;;;;;;102.37;98.03;;;3.10;99.90;;;;;;5037496;28;20472;-81
2022/03/19 02:01:51;;;;;;;177.47;170.93;;;2.90;99.90;;;;;;5038499;28;20491;-81
2022/03/19 02:04:19;;;;;;;326.93;315.43;;;2.90;99.90;;;;;;5038260;28;20448;-81
2022/03/19 02:06:46;;;;;;;235.13;226.87;;;2.90;99.90;;;;;;5038056;28;20460;-81
2022/03/19 02:09:13;;;;;;;326.67;315.03;;;2.80;99.90;;;;;;5037545;28;20653;-81
2022/03/19 02:11:42;;;;;;;328.53;316.73;;;2.50;99.90;;;;;;5037737;28;20451;-81
2022/03/19 02:14:09;;;;;;;533.83;509.93;;;2.40;99.90;;;;;;5038292;28;20982;-81
2022/03/19 02:16:35;;;;;;;580.07;553.47;;;2.30;99.90;;;;;;5037490;28;20452;-81
2022/03/19 02:19:03;;;;;;;623.10;592.83;;;2.40;99.90;;;;;;5037721;28;20831;-81
2022/03/19 02:21:40;;;;;;;611.77;582.00;;;2.10;99.90;;;;;;5037483;28;20534;-81
2022/03/19 02:26:52;;;;;;;586.20;560.33;;;2.00;99.90;;;;;;5036179;28;20452;-81
2022/03/19 02:29:20;;;;;;;679.40;645.57;;;1.80;99.90;;;;;;5037195;28;20479;-81
2022/03/19 02:31:48;;;;;;;715.30;677.10;;;2.00;99.90;;;;;;5037589;28;20494;-82
2022/03/19 02:34:15;;;;;;;784.83;738.93;;;1.90;99.90;;;;;;5037251;28;20456;-81
2022/03/19 02:36:41;;;;;;;800.43;751.93;;;1.80;99.90;;;;;;5037462;28;20460;-81
2022/03/19 02:39:11;;;;;;;806.07;755.00;;;1.80;99.90;;;;;;5037087;28;20832;-81
2022/03/19 02:41:43;;;;;;;803.07;752.97;;;1.80;99.90;;;;;;5036839;28;20482;-81
2022/03/19 02:44:10;;;;;;;829.33;777.50;;;1.70;99.90;;;;;;5037810;28;20456;-81
2022/03/19 02:46:41;;;;;;;855.73;798.07;;;1.60;99.90;;;;;;5036688;28;20498;-81
2022/03/19 02:49:08;;;;;;;856.20;796.80;;;1.60;99.90;;;;;;5036671;28;20483;-81
2022/03/19 02:51:35;;;;;;;856.60;797.90;;;1.80;99.90;;;;;;5037085;28;20452;-81
2022/03/19 02:54:05;;;;;;;850.23;792.37;;;1.70;99.90;;;;;;5037074;28;20460;-81
2022/03/19 02:56:37;;;;;;;863.53;808.00;;;1.70;99.90;;;;;;5036590;28;20674;-81
2022/03/19 02:59:09;;;;;;;862.07;807.87;;;1.60;99.90;;;;;;5036970;28;20476;-82
2022/03/19 03:01:37;;;;;;;873.03;816.63;;;1.70;99.90;;;;;;5036460;28;20475;-81
2022/03/19 03:04:04;;;;;;;871.90;815.00;;;1.50;99.90;;;;;;5037356;28;20831;-81
2022/03/19 03:06:35;;;;;;;874.57;811.90;;;1.50;99.90;;;;;;5036482;28;20452;-81
2022/03/19 03:09:02;;;;;;;870.30;809.27;;;1.60;99.90;;;;;;5036665;28;20476;-81
2022/03/19 03:11:28;;;;;;;858.90;801.50;;;1.50;99.90;;;;;;5036639;28;20452;-82
2022/03/19 03:13:57;;;;;;;863.20;803.47;;;1.60;99.90;;;;;;5036948;28;20456;-81
2022/03/19 03:16:24;;;;;;;866.53;810.40;;;1.70;99.90;;;;;;5036679;28;20448;-81
2022/03/19 03:18:50;;;;;;;874.47;819.57;;;1.50;99.90;;;;;;5036585;28;20499;-81
2022/03/19 03:21:17;;;;;;;872.70;818.90;;;1.50;99.90;;;;;;5036268;28;20448;-81
2022/03/19 03:23:44;;;;;;;873.27;818.30;;;1.40;99.90;;;;;;5036691;28;20459;-81
2022/03/19 03:26:10;;;;;;;863.90;808.00;;;1.50;99.90;;;;;;5036183;28;20448;-81
2022/03/19 03:28:37;;;;;;;854.47;800.70;;;1.40;99.90;;;;;;5036167;28;20798;-81
2022/03/19 03:31:05;;;;;;;856.83;802.63;;;1.20;99.90;;;;;;5036518;28;20460;-81
2022/03/19 03:33:32;;;;;;;866.43;811.53;;;1.10;99.90;;;;;;5037258;28;20445;-81
2022/03/19 03:35:59;;;;;;;859.27;801.10;;;1.10;99.90;;;;;;5036038;28;20463;-81
2022/03/19 03:38:26;;;;;;;833.77;776.97;;;1.10;99.90;;;;;;5036091;28;20543;-81
2022/03/19 03:40:52;;;;;;;836.97;780.47;;;1.00;99.90;;;;;;5036649;28;20456;-81
2022/03/19 03:43:19;;;;;;;851.93;792.90;;;1.10;99.90;;;;;;5036243;28;20843;-80
2022/03/19 03:45:46;;;;;;;869.20;809.30;;;1.10;99.90;;;;;;5036106;28;20452;-80
2022/03/19 03:48:14;;;;;;;895.03;832.40;;;1.10;99.90;;;;;;5035817;28;20473;-81
2022/03/19 03:50:41;;;;;;;890.30;826.97;;;0.90;99.90;;;;;;5036614;28;20457;-82
2022/03/19 03:53:09;;;;;;;885.03;820.03;;;1.00;99.90;;;;;;5035684;28;20444;-81
2022/03/19 03:55:37;;;;;;;887.40;821.60;;;1.00;99.90;;;;;;5036060;28;20455;-81
2022/03/19 03:58:05;;;;;;;887.57;821.80;;;0.90;99.90;;;;;;5037371;28;20495;-81
2022/03/19 04:00:31;;;;;;;877.15;811.05;;;1.00;99.90;;;;;;5035557;28;20456;-81
2022/03/19 04:03:03;;;;;;;874.20;810.30;;;1.00;99.90;;;;;;5035863;28;20225;-81
2022/03/19 04:05:33;;;;;;;873.67;810.30;;;1.00;99.90;;;;;;5036854;28;20452;-80
2022/03/19 04:08:00;;;;;;;876.47;812.57;;;0.80;99.90;;;;;;5036992;28;20837;-81
2022/03/19 04:10:27;;;;;;;890.07;824.97;;;0.70;99.90;;;;;;5046947;28;20487;-81
2022/03/19 04:12:54;;;;;;;888.27;821.67;;;0.80;99.90;;;;;;5046114;28;20448;-82
2022/03/19 04:15:21;;;;;;;892.37;825.10;;;0.70;99.90;;;;;;5042602;28;20456;-80
2022/03/19 04:17:48;;;;;;;874.27;809.10;;;0.90;99.90;;;;;;5035390;28;20460;-84
2022/03/19 04:20:15;;;;;;;897.83;829.23;;;0.70;99.90;;;;;;5036282;28;20463;-80
2022/03/19 04:22:45;;;;;;;897.10;827.50;;;0.70;99.90;;;;;;5036871;28;20471;-81
2022/03/19 04:25:13;;;;;;;904.03;833.37;;;0.60;99.90;;;;;;5038898;28;20452;-80
2022/03/19 04:27:40;;;;;;;901.30;832.80;;;0.60;99.90;;;;;;5036969;28;20452;-80
2022/03/19 04:30:11;;;;;;;891.13;822.67;;;0.80;99.90;;;;;;5043141;28;20459;-81
2022/03/19 04:32:41;;;;;;;901.30;829.50;;;0.70;99.90;;;;;;5045965;28;20439;-82
2022/03/19 04:37:51;;;;;;;913.37;839.73;;;0.60;99.90;;;;;;5043674;28;20444;-81
2022/03/19 04:40:17;;;;;;;911.93;838.07;;;0.50;99.90;;;;;;5034699;28;20459;-83
2022/03/19 04:42:44;;;;;;;908.83;836.38;;;0.40;99.90;;;;;;5035178;28;20468;-81
2022/03/19 04:45:11;;;;;;;914.05;840.22;;;0.30;99.90;;;;;;5035748;28;20201;-81
2022/03/19 04:47:37;;;;;;;919.23;845.83;;;0.20;99.90;;;;;;5035277;28;20190;-79
2022/03/19 04:50:05;;;;;;;922.63;846.83;;;0.30;99.90;;;;;;5035370;28;20459;-81
2022/03/19 04:52:33;;;;;;;929.10;852.88;;;0.10;99.90;;;;;;5040923;28;20563;-83
2022/03/19 04:55:01;;;;;;;929.00;853.63;;;0.20;99.90;;;;;;5039870;28;20197;-82
2022/03/19 04:57:28;;;;;;;926.37;850.10;;;0.20;99.90;;;;;;5040829;28;20467;-82
2022/03/19 04:59:55;;;;;;;934.20;855.83;;;0.10;99.90;;;;;;5054444;28;20989;-81
2022/03/19 05:02:24;;;;;;;928.37;850.90;;;0.20;99.90;;;;;;5043105;28;20467;-82
2022/03/19 05:04:54;;;;;;;921.10;842.93;;;0.50;99.90;;;;;;5040335;28;20826;-82
2022/03/19 05:07:21;;;;;;;929.20;850.40;;;0.30;99.90;;;;;;5041031;28;20451;-83
2022/03/19 05:12:37;;;;;;;932.53;849.83;;;0.70;99.90;;;;;;5037907;28;20436;-82
2022/03/19 05:15:04;;;;;;;911.80;832.93;;;1.10;99.90;;;;;;5039600;28;20480;-85
2022/03/19 05:17:31;;;;;;;882.70;807.80;;;1.40;99.90;;;;;;5038691;28;20534;-82
2022/03/19 05:19:58;;;;;;;904.13;824.80;;;1.50;99.90;;;;;;5038334;28;20472;-81
2022/03/19 05:22:24;;;;;;;907.03;828.37;;;1.50;99.90;;;;;;5038469;28;20471;-81
2022/03/19 05:24:51;;;;;;;900.67;819.80;;;1.60;99.90;;;;;;5039379;28;20452;-82
2022/03/19 05:27:18;;;;;;;864.40;790.13;;;1.80;99.90;;;;;;5038399;28;20452;-79
2022/03/19 05:29:46;;;;;;;859.90;785.30;;;2.10;99.90;;;;;;5037359;28;20484;-82
2022/03/19 05:32:13;;;;;;;882.00;806.70;;;2.00;99.90;;;;;;5039892;28;20824;-82
2022/03/19 05:34:40;;;;;;;893.23;818.83;;;1.80;99.90;;;;;;5037556;28;20835;-81
2022/03/19 05:37:07;;;;;;;892.37;820.03;;;1.70;99.90;;;;;;5036845;28;20948;-81
2022/03/19 05:39:38;;;;;;;894.97;824.57;;;1.70;99.90;;;;;;5038479;28;20480;-82
2022/03/19 05:42:05;;;;;;;894.90;825.40;;;1.60;99.90;;;;;;5036849;28;20445;-81
2022/03/19 05:44:34;;;;;;;904.80;835.40;;;1.50;99.90;;;;;;5038809;28;20449;-81
2022/03/19 05:47:03;;;;;;;900.13;830.30;;;1.40;99.90;;;;;;5039295;28;20814;-81
2022/03/19 05:49:30;;;;;;;888.73;816.47;;;1.30;99.90;;;;;;5037741;28;20480;-83
2022/03/19 05:51:58;;;;;;;879.77;807.13;;;1.40;99.90;;;;;;5038595;28;20460;-81
2022/03/19 05:54:26;;;;;;;872.77;799.90;;;1.60;99.90;;;;;;5038728;28;20453;-81
2022/03/19 05:56:54;;;;;;;858.33;785.50;;;1.60;99.90;;;;;;5036881;28;20498;-80
2022/03/19 05:59:20;;;;;;;846.57;774.90;;;1.70;99.90;;;;;;5038562;28;20221;-82
2022/03/19 06:01:47;;;;;;;855.80;782.03;;;1.60;99.90;;;;;;5037111;28;20448;-82
2022/03/19 06:04:16;;;;;;;880.37;808.87;;;1.80;99.90;;;;;;5037762;28;20472;-81
2022/03/19 06:06:43;;;;;;;864.13;791.28;;;1.60;99.90;;;;;;5038040;28;20824;-82
2022/03/19 06:09:10;;;;;;;862.90;790.27;;;1.70;99.90;;;;;;5019432;28;20219;-82
2022/03/19 06:11:38;;;;;;;873.40;798.57;;;1.60;99.90;;;;;;5036390;28;20859;-82
2022/03/19 06:14:05;;;;;;;865.33;794.17;;;1.70;99.90;;;;;;5038859;28;20523;-81
2022/03/19 06:16:32;;;;;;;872.10;802.30;;;1.60;99.90;;;;;;5037863;28;20658;-81
2022/03/19 06:19:02;;;;;;;872.87;803.20;;;1.60;99.90;;;;;;5037512;28;20479;-81
2022/03/19 06:21:31;;;;;;;872.93;800.37;;;1.70;99.90;;;;;;5040968;28;20836;-83
2022/03/19 06:23:58;;;;;;;851.27;779.20;;;1.70;99.90;;;;;;5038198;28;20472;-83
2022/03/19 06:26:25;;;;;;;837.50;766.80;;;2.00;99.90;;;;;;5037142;28;20452;-80
2022/03/19 06:29:04;;;;;;;841.20;773.00;;;2.30;99.90;;;;;;5037484;28;20472;-84
2022/03/19 06:31:31;;;;;;;854.60;790.30;;;2.40;99.90;;;;;;5040153;28;20490;-83
2022/03/19 06:33:58;;;;;;;858.10;796.07;;;2.70;99.90;;;;;;5039774;28;20908;-82
2022/03/19 06:39:15;;;;;;;853.80;795.80;;;3.10;99.90;;;;;;5059931;23;20603;-83
2022/03/19 06:41:42;;;;;;;854.30;798.60;;;3.20;99.90;;;;;;5054752;28;20447;-83
2022/03/19 06:44:09;;;;;;;836.00;781.57;;;3.40;99.90;;;;;;5052401;28;20498;-83
2022/03/19 06:46:36;;;;;;;836.33;782.77;;;3.60;99.90;;;;;;5055524;28;20451;-83
2022/03/19 06:49:06;;;;;;;822.80;771.77;;;3.60;99.90;;;;;;5055345;28;20467;-83
2022/03/19 06:51:32;;;;;;;797.97;750.20;;;3.70;99.90;;;;;;5055597;28;20447;-83
2022/03/19 06:53:59;;;;;;;709.07;671.27;;;3.90;99.90;;;;;;5056382;28;20443;-83
2022/03/19 06:56:29;;;;;;;693.60;658.03;;;4.30;99.90;;;;;;5054682;28;20444;-84
2022/03/19 06:58:56;;;;;;;688.00;653.60;;;4.30;99.90;;;;;;5056856;28;20467;-84
2022/03/19 07:01:27;;;;;;;574.70;550.00;;;4.50;99.90;;;;;;5057129;28;20867;-84
2022/03/19 07:03:58;;;;;;;568.97;543.47;;;4.80;99.90;;;;;;5054470;28;20467;-84
2022/03/19 07:06:36;;;;;;;567.47;542.53;;;4.70;99.90;;;;;;5055747;28;20474;-84
2022/03/19 07:09:12;;;;;;;553.17;529.67;;;4.70;99.90;;;;;;5055126;28;20528;-83
2022/03/19 07:11:48;;;;;;;599.40;573.07;;;4.60;99.90;;;;;;5055640;28;20460;-87
2022/03/19 07:14:20;;;;;;;554.13;530.30;;;4.80;99.90;;;;;;5053147;28;20467;-83
2022/03/19 07:16:51;;;;;;;482.83;463.23;;;4.80;99.90;;;;;;5054146;28;20509;-81
2022/03/19 07:19:27;;;;;;;575.80;550.63;;;4.90;99.90;;;;;;5053976;28;20482;-83
2022/03/19 07:21:54;;;;;;;587.87;562.33;;;5.10;99.90;;;;;;5053099;28;20457;-82
2022/03/19 07:24:21;;;;;;;485.33;466.33;;;5.30;99.90;;;;;;5052176;28;20454;-82
2022/03/19 07:26:49;;;;;;;545.07;523.47;;;5.20;99.90;;;;;;5054008;28;20447;-83
2022/03/19 07:29:19;;;;;;;509.47;489.67;;;5.50;99.90;;;;;;5053833;28;20471;-82
2022/03/19 07:31:46;;;;;;;502.20;482.63;;;5.60;99.90;;;;;;5052473;28;20455;-82
2022/03/19 07:34:12;;;;;;;499.33;479.83;;;5.60;99.90;;;;;;5053240;28;20475;-82
2022/03/19 07:36:39;;;;;;;398.53;384.43;;;5.90;99.90;;;;;;5052177;28;20530;-82
2022/03/19 07:39:06;;;;;;;272.43;262.13;;;5.90;99.90;;;;;;5051515;28;20482;-82
2022/03/19 07:41:48;;;;;;;182.30;175.03;;;6.00;99.90;;;;;;5052435;28;20462;-82
2022/03/19 07:44:17;;;;;;;55.43;52.33;;;6.40;99.90;;;;;;5048053;28;20454;-82
2022/03/19 07:46:44;;;;;;;46.10;42.80;;;6.60;99.90;;;;;;5053116;28;20871;-82
2022/03/19 07:49:13;;;;;;;24.60;22.73;;;6.70;99.90;;;;;;5052481;28;20471;-82
2022/03/19 07:51:41;;;;;;;15.50;13.90;;;6.80;99.90;;;;;;5057192;28;20486;-82
2022/03/19 07:54:07;;;;;;;14.60;10.13;;;7.20;99.60;;;;;;5055766;28;20479;-82
2022/03/19 07:56:51;;;;;;;12.07;9.63;;;7.30;98.60;;;;;;5055554;28;20486;-83
2022/03/19 07:59:21;;;;;;;16.40;8.70;;;7.40;96.40;;;;;;5055703;28;20536;-83
2022/03/19 08:01:49;;;;;;;13.70;7.63;;;7.40;94.40;;;;;;5056911;28;20452;-82
2022/03/19 08:04:15;;;;;;;17.77;7.90;;;7.60;92.30;;;;;;5052686;28;20447;-82
2022/03/19 08:06:42;;;;;;;11.73;6.90;;;7.80;90.60;;;;;;5054028;28;20452;-81
2022/03/19 08:09:11;;;;;;;13.63;7.00;;;7.80;89.50;;;;;;5055100;28;20472;-83
2022/03/19 08:11:39;;;;;;;13.67;6.90;;;7.90;87.70;;;;;;5054758;28;20451;-83
2022/03/19 08:14:06;;;;;;;18.50;7.30;;;7.80;86.30;;;;;;5053368;28;20995;-82
2022/03/19 08:16:34;;;;;;;10.93;6.70;;;8.00;83.90;;;;;;5053445;28;20450;-82
2022/03/19 08:19:01;;;;;;;11.40;6.30;;;8.20;82.50;;;;;;5054098;28;20478;-83
2022/03/19 08:21:28;;;;;;;15.67;7.53;;;8.40;81.10;;;;;;5051620;28;20455;-82
2022/03/19 08:23:55;;;;;;;14.40;7.97;;;8.50;78.20;;;;;;5052355;28;20440;-83
2022/03/19 08:26:22;;;;;;;14.40;7.37;;;8.50;73.90;;;;;;5056422;28;20473;-82
2022/03/19 08:28:48;;;;;;;11.53;6.97;;;8.70;74.30;;;;;;5054722;28;20471;-84
2022/03/19 08:31:15;;;;;;;11.23;6.50;;;8.70;74.50;;;;;;5055275;28;20451;-86
2022/03/19 08:33:44;;;;;;;20.20;8.50;;;9.00;70.10;;;;;;5056087;28;20475;-83
2022/03/19 08:36:10;;;;;;;11.10;7.13;;;9.30;70.40;;;;;;5055847;28;20958;-83
2022/03/19 08:41:21;;;;;;;12.33;7.37;;;9.70;67.20;;;;;;5056784;28;20825;-83
2022/03/19 08:43:48;;;;;;;10.93;7.13;;;10.20;62.40;;;;;;5058972;28;20443;-84
2022/03/19 08:46:14;;;;;;;14.70;6.10;;;10.40;56.80;;;;;;5059687;28;20836;-84
2022/03/19 08:48:43;;;;;;;12.70;7.70;;;10.60;52.80;;;;;;5057241;28;20479;-84
2022/03/19 08:53:54;;;;;;;10.43;6.40;;;11.30;46.80;;;;;;5055913;28;20501;-84
2022/03/19 08:56:21;;;;;;;11.73;6.53;;;11.50;47.50;;;;;;5059678;28;20462;-84
2022/03/19 08:58:48;;;;;;;17.93;6.77;;;11.80;45.00;;;;;;5060945;28;20517;-85
2022/03/19 09:01:15;;;;;;;14.10;6.90;;;12.20;41.50;;;;;;5059357;28;20447;-85
2022/03/19 09:03:43;;;;;;;11.40;6.10;;;12.20;37.90;;;;;;5057296;28;20451;-84
2022/03/19 09:06:14;;;;;;;11.00;6.10;;;12.40;37.30;;;;;;5056918;28;20474;-83
2022/03/19 09:08:41;;;;;;;11.50;6.80;;;12.70;33.70;;;;;;5057293;28;20473;-83
2022/03/19 09:11:08;;;;;;;14.03;5.40;;;12.90;32.50;;;;;;5057101;28;20451;-86
2022/03/19 09:13:36;;;;;;;11.07;6.20;;;13.00;34.80;;;;;;5061490;28;20484;-86
2022/03/19 09:16:03;;;;;;;10.53;6.00;;;13.30;29.30;;;;;;5061963;28;20496;-85
2022/03/19 09:18:30;;;;;;;12.67;6.17;;;13.10;27.90;;;;;;5062049;28;20474;-85
2022/03/19 09:20:58;;;;;;;11.43;5.00;;;13.40;27.90;;;;;;5056353;28;20461;-85
2022/03/19 09:23:26;;;;;;;10.30;6.37;;;13.50;27.00;;;;;;5058516;28;20450;-84
2022/03/19 09:25:53;;;;;;;11.50;6.23;;;13.80;27.80;;;;;;5057457;28;20475;-86
2022/03/19 09:28:20;;;;;;;11.07;6.25;;;13.60;26.30;;;;;;5055637;28;20466;-84
2022/03/19 09:30:47;;;;;;;12.37;6.37;;;13.90;23.80;;;;;;5058143;28;20188;-85
2022/03/19 09:33:14;;;;;;;15.67;6.40;;;14.00;24.50;;;;;;5060858;28;20454;-86
2022/03/19 09:35:41;;;;;;;11.80;5.53;;;14.40;23.00;;;;;;5061815;28;20448;-86
2022/03/19 09:38:09;;;;;;;10.53;5.37;;;14.80;23.30;;;;;;5061938;28;20964;-84
2022/03/19 09:40:36;;;;;;;11.40;5.70;;;14.30;19.90;;;;;;5058721;28;20482;-84
2022/03/19 09:43:03;;;;;;;11.40;5.80;;;15.00;21.90;;;;;;5059977;28;20455;-84
2022/03/19 09:45:30;;;;;;;14.23;5.33;;;15.40;18.90;;;;;;5057981;28;20451;-84
2022/03/19 09:47:57;;;;;;;14.80;6.30;;;16.10;17.80;;;;;;5056040;28;20474;-84
2022/03/19 09:50:25;;;;;;;10.73;6.20;;;15.90;15.10;;;;;;5038486;28;20530;-84
2022/03/19 09:52:54;;;;;;;13.43;7.60;;;15.80;14.40;;;;;;5053353;28;20823;-84
2022/03/19 09:55:26;;;;;;;14.00;6.97;;;16.20;17.00;;;;;;5055584;28;20478;-84
2022/03/19 09:57:54;;;;;;;17.70;6.20;;;16.30;17.00;;;;;;5055247;28;20531;-84
2022/03/19 10:00:22;;;;;;;7.70;4.90;;;16.70;13.70;;;;;;5056835;28;20469;-84
2022/03/19 10:02:55;;;;;;;10.23;5.00;;;16.70;11.60;;;;;;5056458;28;20452;-84
2022/03/19 10:10:50;;;;;;;10.23;4.23;;;15.50;6.50;;;;;;5059677;28;20198;-84
2022/03/19 10:13:16;;;;;;;12.73;7.40;;;15.50;6.00;;;;;;5059758;28;20456;-85
2022/03/19 10:15:44;;;;;;;9.77;3.60;;;15.70;5.90;;;;;;5059158;28;20453;-84
2022/03/19 10:18:12;;;;;;;12.10;4.00;;;15.30;3.80;;;;;;5057444;28;20487;-84
2022/03/19 10:20:39;;;;;;;8.27;3.97;;;15.20;4.30;;;;;;5060431;28;20535;-84
2022/03/19 10:23:06;;;;;;;10.70;4.13;;;15.20;1.70;;;;;;5058668;28;20464;-84
2022/03/19 10:25:32;;;;;;;7.70;4.00;;;15.60;1.60;;;;;;5058110;28;20450;-85
2022/03/19 10:28:03;;;;;;;12.67;4.50;;;15.80;1.00;;;;;;5057983;28;20450;-84
2022/03/19 10:30:36;;;;;;;11.00;4.33;;;15.70;1.00;;;;;;5058387;28;20452;-84
2022/03/19 10:33:03;;;;;;;11.13;4.33;;;15.40;1.00;;;;;;5058338;28;20459;-85
2022/03/19 10:35:32;;;;;;;9.90;3.50;;;16.10;1.70;;;;;;5057926;28;20475;-84
2022/03/19 10:38:01;;;;;;;10.80;4.27;;;16.00;1.00;;;;;;5056692;28;20540;-84
2022/03/19 10:40:38;;;;;;;7.63;3.60;;;15.90;1.00;;;;;;5057552;28;20926;-84
2022/03/19 10:43:09;;;;;;;7.00;3.50;;;15.70;1.00;;;;;;5058561;28;20827;-85
2022/03/19 10:45:43;;;;;;;8.40;4.03;;;16.20;1.00;;;;;;5056856;28;20440;-84
2022/03/19 10:48:11;;;;;;;10.53;3.80;;;16.90;1.00;;;;;;5055395;28;20509;-84
2022/03/19 10:50:40;;;;;;;9.60;3.80;;;16.50;1.00;;;;;;5056883;28;20455;-84
2022/03/19 10:53:07;;;;;;;8.13;3.37;;;17.00;1.00;;;;;;5058672;28;20451;-85
2022/03/19 10:55:34;;;;;;;10.50;3.40;;;17.50;1.00;;;;;;5057456;28;20464;-85
2022/03/19 10:58:02;;;;;;;6.63;2.80;;;16.90;1.00;;;;;;5057506;28;20461;-84
2022/03/19 11:00:30;;;;;;;7.97;2.77;;;16.80;1.00;;;;;;5055548;28;20465;-84
2022/03/19 11:03:00;;;;;;;9.13;3.10;;;16.80;1.00;;;;;;5056705;28;20839;-84
2022/03/19 11:05:33;;;;;;;7.60;2.80;;;17.30;1.00;;;;;;5056008;28;20443;-84
2022/03/19 11:08:01;;;;;;;7.37;3.20;;;17.30;1.00;;;;;;5057294;28;20454;-84
2022/03/19 11:10:29;;;;;;;8.60;2.50;;;17.50;1.00;;;;;;5055816;28;20479;-86
2022/03/19 11:12:58;;;;;;;6.40;2.63;;;17.50;1.00;;;;;;5056434;28;20449;-85
2022/03/19 11:15:29;;;;;;;8.53;3.17;;;18.00;1.00;;;;;;5057911;28;20472;-84
2022/03/19 11:18:01;;;;;;;6.23;2.77;;;17.50;1.00;;;;;;5058875;28;20453;-85
2022/03/19 11:20:28;;;;;;;8.73;2.67;;;17.90;1.00;;;;;;5057193;28;20473;-85
2022/03/19 11:22:56;;;;;;;7.57;3.20;;;17.90;1.00;;;;;;5058554;28;20463;-83
2022/03/19 11:25:30;;;;;;;6.40;2.90;;;17.20;1.00;;;;;;5057343;28;20823;-86
2022/03/19 11:27:58;;;;;;;10.17;3.13;;;17.10;1.00;;;;;;5056538;28;20501;-82
2022/03/19 11:30:27;;;;;;;8.47;2.77;;;17.40;1.00;;;;;;5055322;28;20896;-82
2022/03/19 11:33:06;;;;;;;6.73;3.10;;;18.10;1.00;;;;;;5057787;28;20453;-83
2022/03/19 11:35:34;;;;;;;12.27;4.20;;;18.30;1.00;;;;;;5059067;28;21267;-82
2022/03/19 11:38:03;;;;;;;7.40;3.20;;;17.90;1.00;;;;;;5056469;28;20845;-83
2022/03/19 11:40:35;;;;;;;5.97;2.17;;;18.10;1.00;;;;;;5056992;28;20486;-83
2022/03/19 11:43:04;;;;;;;8.67;2.20;;;17.90;1.00;;;;;;5059129;28;21007;-82
2022/03/19 11:45:39;;;;;;;5.73;2.30;;;18.30;1.00;;;;;;5058121;28;20445;-83
2022/03/19 11:48:41;;;;;;;8.23;2.30;;;17.60;1.00;;;;;;5047990;28;20461;-82
2022/03/19 11:51:17;;;;;;;7.47;2.33;;;17.70;1.00;;;;;;5054877;28;20447;-82
2022/03/19 11:53:54;;;;;;;7.30;2.10;;;17.80;1.00;;;;;;5055902;28;20454;-82
2022/03/19 11:56:22;;;;;;;8.63;2.30;;;18.30;1.00;;;;;;5056065;28;20956;-82
2022/03/19 11:58:49;;;;;;;4.97;1.77;;;17.90;1.00;;;;;;5056199;28;20469;-81
2022/03/19 12:01:16;;;;;;;4.00;1.60;;;17.90;1.00;;;;;;5057123;28;20452;-82
2022/03/19 12:04:12;;;;;;;5.43;1.60;;;18.20;1.00;;;;;;5047552;28;20454;-82
2022/03/19 12:06:41;;;;;;;7.40;2.00;;;18.30;1.00;;;;;;5056911;28;20452;-82
2022/03/19 12:09:08;;;;;;;7.50;2.40;;;17.40;1.00;;;;;;5057016;28;20466;-82
2022/03/19 12:11:35;;;;;;;7.33;2.90;;;17.50;1.00;;;;;;5056747;28;20463;-82
2022/03/19 12:14:10;;;;;;;5.60;2.23;;;17.80;1.00;;;;;;5056050;28;20448;-82
2022/03/19 12:16:43;;;;;;;6.70;2.83;;;17.60;1.00;;;;;;5054985;28;20451;-83
2022/03/19 12:19:12;;;;;;;8.67;3.63;;;18.20;1.00;;;;;;5055083;28;20521;-83
2022/03/19 12:21:41;;;;;;;7.50;3.57;;;18.00;1.00;;;;;;5057561;28;20458;-83
2022/03/19 12:24:27;;;;;;;11.73;5.10;;;17.40;1.00;;;;;;5057620;28;20449;-82
2022/03/19 12:26:55;;;;;;;11.40;3.90;;;17.40;1.00;;;;;;5040919;28;20453;-82
2022/03/19 12:29:25;;;;;;;7.70;3.90;;;17.50;1.00;;;;;;5055105;28;20471;-83
2022/03/19 12:31:53;;;;;;;8.50;3.90;;;17.90;1.00;;;;;;5058893;28;20462;-83
2022/03/19 12:34:23;;;;;;;11.97;4.17;;;18.10;1.00;;;;;;5057665;28;20468;-82
2022/03/19 12:36:50;;;;;;;7.70;3.17;;;18.10;1.00;;;;;;5057327;28;20446;-82
2022/03/19 12:39:17;;;;;;;9.90;4.30;;;17.90;1.00;;;;;;5072250;23;20502;-83
2022/03/19 12:41:45;;;;;;;8.43;3.50;;;17.70;1.00;;;;;;5036783;28;20456;-84
2022/03/19 12:44:20;;;;;;;9.40;4.20;;;17.70;1.00;;;;;;5034417;28;20451;-83
2022/03/19 12:46:47;;;;;;;8.17;3.67;;;17.80;1.00;;;;;;5032904;28;20440;-83
2022/03/19 12:49:15;;;;;;;9.40;4.03;;;18.10;1.00;;;;;;5034030;28;20476;-83
2022/03/19 12:51:46;;;;;;;7.93;3.80;;;17.40;1.00;;;;;;5035656;28;20459;-83
2022/03/19 12:54:21;;;;;;;6.00;2.77;;;18.20;1.00;;;;;;5036371;28;20445;-81
2022/03/19 12:56:48;;;;;;;6.70;3.13;;;17.60;1.00;;;;;;5020027;28;20486;-83
2022/03/19 12:59:21;;;;;;;7.00;2.93;;;18.10;1.00;;;;;;5035235;28;20839;-83
2022/03/19 13:01:48;;;;;;;9.50;5.00;;;18.50;1.00;;;;;;5037014;28;20459;-82